createdAt,value
2023-07-09T00:02:27.673Z,101103.06
2023-07-09T00:04:55.990Z,101116.78
2023-07-09T00:07:35.339Z,101109.28
2023-07-09T00:10:03.907Z,101103.53
2023-07-09T00:12:32.521Z,101116.75
2023-07-09T00:15:00.874Z,101109.63
2023-07-09T00:17:35.680Z,101102.81
2023-07-09T00:20:15.929Z,101106.38
2023-07-09T00:22:50.057Z,101108.97
2023-07-09T00:25:18.668Z,101103.59
2023-07-09T00:27:51.822Z,101110.41
2023-07-09T00:30:23.844Z,101106.78
2023-07-09T00:32:53.932Z,101117.47
2023-07-09T00:35:24.538Z,101116.88
2023-07-09T00:37:52.912Z,101113.50
2023-07-09T00:40:24.159Z,101106.47
2023-07-09T00:42:55.647Z,101104.16
2023-07-09T00:45:27.778Z,101101.56
2023-07-09T00:48:00.849Z,101103.03
2023-07-09T00:50:43.331Z,101099.59
2023-07-09T00:53:33.447Z,101100.63
2023-07-09T00:56:07.510Z,101104.78
2023-07-09T00:58:38.145Z,101104.00
2023-07-09T01:01:13.257Z,101103.25
2023-07-09T01:03:47.118Z,101096.66
2023-07-09T01:06:17.655Z,101086.81
2023-07-09T01:08:46.895Z,101096.06
2023-07-09T01:11:25.673Z,101104.28
2023-07-09T01:13:57.712Z,101106.91
2023-07-09T01:16:33.089Z,101106.44
2023-07-09T01:19:02.548Z,101096.56
2023-07-09T01:21:31.185Z,101122.53
2023-07-09T01:23:59.805Z,101102.56
2023-07-09T01:26:29.923Z,101109.50
2023-07-09T01:28:59.105Z,101115.00
2023-07-09T01:31:27.803Z,101113.28
2023-07-09T01:33:56.062Z,101115.19
2023-07-09T01:36:27.404Z,101113.16
2023-07-09T01:38:55.909Z,101121.69
2023-07-09T01:41:24.191Z,101112.88
2023-07-09T01:43:52.515Z,101110.47
2023-07-09T01:46:20.915Z,101112.44
2023-07-09T01:48:49.166Z,101115.59
2023-07-09T01:51:19.045Z,101116.00
2023-07-09T01:53:47.532Z,101117.91
2023-07-09T01:56:15.870Z,101119.88
2023-07-09T01:58:44.217Z,101131.69
2023-07-09T02:01:12.941Z,101136.75
2023-07-09T02:03:41.547Z,101128.41
2023-07-09T02:06:11.354Z,101130.44
2023-07-09T02:08:40.062Z,101136.13
2023-07-09T02:11:08.455Z,101142.34
2023-07-09T02:13:36.783Z,101140.84
2023-07-09T02:16:05.499Z,101133.06
2023-07-09T02:18:34.130Z,101143.13
2023-07-09T02:21:02.475Z,101146.00
2023-07-09T02:23:31.534Z,101141.84
2023-07-09T02:25:59.993Z,101143.00
2023-07-09T02:28:28.317Z,101138.53
2023-07-09T02:30:56.555Z,101149.28
2023-07-09T02:33:25.539Z,101149.38
2023-07-09T02:35:53.819Z,101145.19
2023-07-09T02:38:22.103Z,101162.22
2023-07-09T02:40:50.379Z,101156.50
2023-07-09T02:43:18.629Z,101157.97
2023-07-09T02:45:46.889Z,101151.16
2023-07-09T02:48:15.141Z,101160.31
2023-07-09T02:50:43.458Z,101162.59
2023-07-09T02:53:11.760Z,101166.44
2023-07-09T02:55:39.998Z,101160.31
2023-07-09T02:58:08.236Z,101163.03
2023-07-09T03:00:36.467Z,101164.84
2023-07-09T03:03:05.056Z,101165.34
2023-07-09T03:05:33.457Z,101171.84
2023-07-09T03:08:01.690Z,101165.84
2023-07-09T03:10:31.508Z,101171.19
2023-07-09T03:12:59.726Z,101173.09
2023-07-09T03:15:27.974Z,101178.53
2023-07-09T03:17:56.240Z,101176.97
2023-07-09T03:20:24.693Z,101183.81
2023-07-09T03:22:52.934Z,101182.34
2023-07-09T03:25:21.214Z,101184.47
2023-07-09T03:27:52.385Z,101187.53
2023-07-09T03:30:20.767Z,101190.56
2023-07-09T03:32:49.005Z,101189.06
2023-07-09T03:35:17.442Z,101190.34
2023-07-09T03:37:45.656Z,101185.94
2023-07-09T03:40:22.523Z,101186.88
2023-07-09T03:42:51.671Z,101180.94
2023-07-09T03:45:19.900Z,101181.91
2023-07-09T03:47:48.949Z,101185.66
2023-07-09T03:50:17.514Z,101190.28
2023-07-09T03:52:45.805Z,101191.44
2023-07-09T03:55:15.104Z,101185.50
2023-07-09T03:57:43.335Z,101191.84
2023-07-09T04:00:15.153Z,101194.63
2023-07-09T04:02:45.624Z,101192.03
2023-07-09T04:05:14.205Z,101189.47
2023-07-09T04:07:42.649Z,101185.94
2023-07-09T04:10:11.372Z,101193.09
2023-07-09T04:12:39.659Z,101184.16
2023-07-09T04:15:08.813Z,101190.50
2023-07-09T04:17:37.410Z,101197.00
2023-07-09T04:20:09.516Z,101195.19
2023-07-09T04:22:38.642Z,101196.06
2023-07-09T04:25:11.651Z,101199.72
2023-07-09T04:27:41.441Z,101206.97
2023-07-09T04:30:16.603Z,101212.38
2023-07-09T04:32:48.769Z,101204.75
2023-07-09T04:35:17.492Z,101213.72
2023-07-09T04:37:45.889Z,101215.53
2023-07-09T04:40:15.102Z,101226.19
2023-07-09T04:42:44.051Z,101227.19
2023-07-09T04:45:14.110Z,101234.38
2023-07-09T04:47:42.657Z,101237.22
2023-07-09T04:50:13.359Z,101249.06
2023-07-09T04:52:41.764Z,101243.94
2023-07-09T04:55:10.706Z,101251.03
2023-07-09T04:57:39.217Z,101258.88
2023-07-09T05:00:08.376Z,101249.22
2023-07-09T05:02:36.691Z,101255.53
2023-07-09T05:05:05.392Z,101254.72
2023-07-09T05:07:35.112Z,101264.56
2023-07-09T05:10:03.436Z,101271.66
2023-07-09T05:12:32.356Z,101273.50
2023-07-09T05:15:00.735Z,101277.03
2023-07-09T05:17:28.999Z,101275.34
2023-07-09T05:19:57.513Z,101271.81
2023-07-09T05:22:25.728Z,101280.78
2023-07-09T05:24:53.968Z,101275.56
2023-07-09T05:27:22.188Z,101280.88
2023-07-09T05:29:50.428Z,101278.28
2023-07-09T05:32:18.672Z,101281.94
2023-07-09T05:34:46.913Z,101270.34
2023-07-09T05:37:15.302Z,101283.72
2023-07-09T05:39:43.631Z,101280.25
2023-07-09T05:42:11.930Z,101282.84
2023-07-09T05:44:40.195Z,101274.00
2023-07-09T05:47:08.572Z,101282.84
2023-07-09T05:49:36.864Z,101279.28
2023-07-09T05:52:05.433Z,101275.72
2023-07-09T05:54:34.089Z,101279.28
2023-07-09T05:57:02.328Z,101273.81
2023-07-09T05:59:30.908Z,101273.81
2023-07-09T06:01:59.200Z,101266.84
2023-07-09T06:04:28.497Z,101269.69
2023-07-09T06:06:56.782Z,101267.09
2023-07-09T06:09:25.223Z,101265.38
2023-07-09T06:11:54.661Z,101259.34
2023-07-09T06:14:22.894Z,101268.50
2023-07-09T06:16:51.201Z,101262.41
2023-07-09T06:19:19.490Z,101256.22
2023-07-09T06:21:47.748Z,101258.97
2023-07-09T06:24:16.036Z,101245.78
2023-07-09T06:26:44.448Z,101255.59
2023-07-09T06:29:12.745Z,101252.03
2023-07-09T06:31:42.493Z,101251.13
2023-07-09T06:34:11.354Z,101251.06
2023-07-09T06:36:41.421Z,101259.91
2023-07-09T06:39:11.490Z,101255.59
2023-07-09T06:41:40.865Z,101249.31
2023-07-09T06:44:10.180Z,101249.47
2023-07-09T06:46:38.708Z,101250.41
2023-07-09T06:49:09.773Z,101249.53
2023-07-09T06:51:37.988Z,101252.16
2023-07-09T06:54:07.018Z,101261.06
2023-07-09T06:56:35.240Z,101257.59
2023-07-09T06:59:03.463Z,101248.75
2023-07-09T07:01:32.184Z,101246.94
2023-07-09T07:04:00.629Z,101248.81
2023-07-09T07:06:28.870Z,101235.50
2023-07-09T07:08:57.136Z,101243.47
2023-07-09T07:11:25.512Z,101244.50
2023-07-09T07:13:54.422Z,101243.66
2023-07-09T07:16:22.835Z,101237.47
2023-07-09T07:18:52.224Z,101247.25
2023-07-09T07:21:20.457Z,101240.13
2023-07-09T07:23:48.703Z,101240.19
2023-07-09T07:26:16.977Z,101238.34
2023-07-09T07:28:45.273Z,101234.72
2023-07-09T07:31:13.621Z,101235.53
2023-07-09T07:33:43.555Z,101229.31
2023-07-09T07:36:29.155Z,101232.81
2023-07-09T07:38:59.444Z,101232.69
2023-07-09T07:41:28.182Z,101237.09
2023-07-09T07:43:56.486Z,101227.44
2023-07-09T07:46:24.799Z,101230.16
2023-07-09T07:48:53.063Z,101224.84
2023-07-09T07:51:22.975Z,101228.47
2023-07-09T07:53:51.178Z,101228.56
2023-07-09T07:56:19.476Z,101220.69
2023-07-09T07:58:47.725Z,101229.72
2023-07-09T08:01:16.013Z,101226.28
2023-07-09T08:03:44.330Z,101222.69
2023-07-09T08:06:13.813Z,101225.50
2023-07-09T08:08:42.092Z,101224.75
2023-07-09T08:11:11.701Z,101220.50
2023-07-09T08:13:41.011Z,101219.69
2023-07-09T08:16:10.047Z,101217.03
2023-07-09T08:18:39.160Z,101216.16
2023-07-09T08:21:07.535Z,101210.00
2023-07-09T08:23:35.788Z,101214.38
2023-07-09T08:26:06.234Z,101209.97
2023-07-09T08:28:37.429Z,101208.41
2023-07-09T08:31:05.928Z,101207.56
2023-07-09T08:33:34.421Z,101216.38
2023-07-09T08:36:02.795Z,101203.97
2023-07-09T08:38:31.526Z,101210.28
2023-07-09T08:41:08.748Z,101212.97
2023-07-09T08:43:47.957Z,101203.22
2023-07-09T08:46:34.373Z,101217.28
2023-07-09T08:49:04.586Z,101207.47
2023-07-09T08:51:45.066Z,101209.28
2023-07-09T08:54:30.088Z,101209.41
2023-07-09T08:57:16.341Z,101212.06
2023-07-09T08:59:45.196Z,101212.00
2023-07-09T09:02:33.986Z,101210.28
2023-07-09T09:05:02.925Z,101205.81
2023-07-09T09:07:43.008Z,101210.38
2023-07-09T09:10:23.593Z,101214.03
2023-07-09T09:13:01.622Z,101212.22
2023-07-09T09:15:30.288Z,101214.75
2023-07-09T09:18:12.932Z,101220.16
2023-07-09T09:20:43.529Z,101219.19
2023-07-09T09:23:20.357Z,101220.06
2023-07-09T09:26:08.479Z,101212.88
2023-07-09T09:28:41.654Z,101217.34
2023-07-09T09:31:13.821Z,101215.47
2023-07-09T09:33:46.893Z,101219.75
2023-07-09T09:36:22.073Z,101222.25
2023-07-09T09:38:52.516Z,101219.53
2023-07-09T09:41:28.480Z,101215.94
2023-07-09T09:43:57.254Z,101216.72
2023-07-09T09:46:29.453Z,101224.63
2023-07-09T09:49:02.941Z,101223.56
2023-07-09T09:51:31.860Z,101226.03
2023-07-09T09:54:02.609Z,101226.91
2023-07-09T09:56:38.573Z,101223.28
2023-07-09T09:59:07.825Z,101222.38
2023-07-09T10:01:37.767Z,101222.28
2023-07-09T10:04:07.864Z,101219.50
2023-07-09T10:06:44.248Z,101221.19
2023-07-09T10:09:18.281Z,101225.63
2023-07-09T10:11:57.947Z,101217.81
2023-07-09T10:14:34.953Z,101218.59
2023-07-09T10:17:40.125Z,101221.09
2023-07-09T10:20:30.092Z,101215.66
2023-07-09T10:23:07.122Z,101212.09
2023-07-09T10:26:03.245Z,101214.78
2023-07-09T10:28:40.360Z,101212.13
2023-07-09T10:31:34.862Z,101209.28
2023-07-09T10:34:41.908Z,101212.72
2023-07-09T10:37:37.918Z,101214.47
2023-07-09T10:40:11.727Z,101210.94
2023-07-09T10:42:52.628Z,101208.38
2023-07-09T10:45:43.123Z,101215.50
2023-07-09T10:48:34.112Z,101211.88
2023-07-09T10:51:05.220Z,101211.78
2023-07-09T10:53:45.953Z,101210.88
2023-07-09T10:56:19.468Z,101209.03
2023-07-09T10:58:47.662Z,101212.50
2023-07-09T11:01:17.405Z,101210.88
2023-07-09T11:03:47.633Z,101216.25
2023-07-09T11:06:31.234Z,101219.78
2023-07-09T11:09:00.902Z,101218.81
2023-07-09T11:11:42.031Z,101218.00
2023-07-09T11:14:40.942Z,101218.06
2023-07-09T11:17:17.506Z,101220.03
2023-07-09T11:19:55.497Z,101224.56
2023-07-09T11:22:43.829Z,101225.50
2023-07-09T11:25:17.476Z,101224.69
2023-07-09T11:28:03.390Z,101225.56
2023-07-09T11:30:32.379Z,101222.78
2023-07-09T11:33:23.188Z,101226.38
2023-07-09T11:35:56.442Z,101229.81
2023-07-09T11:38:26.677Z,101226.13
2023-07-09T11:40:57.999Z,101226.97
2023-07-09T11:43:36.729Z,101233.03
2023-07-09T11:46:28.955Z,101220.56
2023-07-09T11:49:00.772Z,101222.28
2023-07-09T11:51:42.431Z,101232.88
2023-07-09T11:54:17.852Z,101229.50
2023-07-09T11:56:56.788Z,101233.16
2023-07-09T11:59:25.268Z,101228.81
2023-07-09T12:01:56.942Z,101238.56
2023-07-09T12:04:37.108Z,101237.63
2023-07-09T12:07:07.741Z,101227.06
2023-07-09T12:09:51.461Z,101228.94
2023-07-09T12:12:25.681Z,101230.78
2023-07-09T12:14:54.365Z,101230.84
2023-07-09T12:17:28.730Z,101232.63
2023-07-09T12:19:57.350Z,101230.84
2023-07-09T12:22:25.682Z,101229.91
2023-07-09T12:24:56.009Z,101230.78
2023-07-09T12:27:31.516Z,101233.41
2023-07-09T12:30:00.227Z,101236.88
2023-07-09T12:32:30.322Z,101235.06
2023-07-09T12:34:59.154Z,101232.41
2023-07-09T12:37:30.544Z,101229.81
2023-07-09T12:40:03.883Z,101235.06
2023-07-09T12:42:38.065Z,101237.66
2023-07-09T12:45:08.104Z,101237.72
2023-07-09T12:47:36.601Z,101235.06
2023-07-09T12:50:20.268Z,101237.63
2023-07-09T12:52:50.520Z,101235.78
2023-07-09T12:55:24.573Z,101239.31
2023-07-09T12:57:53.342Z,101235.78
2023-07-09T13:00:22.741Z,101244.59
2023-07-09T13:02:57.875Z,101244.53
2023-07-09T13:05:28.245Z,101246.34
2023-07-09T13:08:05.818Z,101251.59
2023-07-09T13:10:40.582Z,101252.38
2023-07-09T13:13:14.441Z,101256.84
2023-07-09T13:15:50.448Z,101252.44
2023-07-09T13:18:18.770Z,101263.09
2023-07-09T13:20:51.523Z,101261.28
2023-07-09T13:23:28.117Z,101256.84
2023-07-09T13:25:58.605Z,101262.19
2023-07-09T13:28:33.975Z,101263.03
2023-07-09T13:31:10.530Z,101266.47
2023-07-09T13:33:41.897Z,101262.91
2023-07-09T13:36:11.864Z,101273.59
2023-07-09T13:38:40.165Z,101272.75
2023-07-09T13:41:18.759Z,101273.63
2023-07-09T13:43:49.167Z,101272.66
2023-07-09T13:46:17.764Z,101273.38
2023-07-09T13:48:47.952Z,101270.63
2023-07-09T13:51:25.492Z,101274.06
2023-07-09T13:53:56.801Z,101263.28
2023-07-09T13:56:25.656Z,101272.09
2023-07-09T13:58:53.994Z,101268.44
2023-07-09T14:01:25.476Z,101267.53
2023-07-09T14:04:00.320Z,101270.13
2023-07-09T14:06:28.606Z,101275.47
2023-07-09T14:08:56.871Z,101276.22
2023-07-09T14:11:25.090Z,101282.31
2023-07-09T14:13:54.542Z,101275.91
2023-07-09T14:16:22.822Z,101280.22
2023-07-09T14:18:51.081Z,101282.72
2023-07-09T14:21:28.153Z,101292.41
2023-07-09T14:23:56.542Z,101295.09
2023-07-09T14:26:24.778Z,101293.22
2023-07-09T14:28:53.040Z,101297.75
2023-07-09T14:31:30.552Z,101300.44
2023-07-09T14:34:24.680Z,101304.09
2023-07-09T14:36:54.639Z,101311.25
2023-07-09T14:39:23.164Z,101307.75
2023-07-09T14:41:52.030Z,101311.28
2023-07-09T14:44:31.011Z,101318.41
2023-07-09T14:47:01.764Z,101312.09
2023-07-09T14:49:30.859Z,101314.88
2023-07-09T14:51:59.187Z,101312.91
2023-07-09T14:54:31.159Z,101312.88
2023-07-09T14:57:00.667Z,101311.88
2023-07-09T14:59:28.941Z,101321.59
2023-07-09T15:01:57.452Z,101317.88
2023-07-09T15:04:28.897Z,101322.09
2023-07-09T15:06:58.809Z,101328.19
2023-07-09T15:09:28.932Z,101323.72
2023-07-09T15:12:01.634Z,101328.94
2023-07-09T15:14:30.084Z,101336.81
2023-07-09T15:17:01.183Z,101334.84
2023-07-09T15:19:30.325Z,101342.50
2023-07-09T15:21:59.096Z,101341.47
2023-07-09T15:24:37.620Z,101344.88
2023-07-09T15:27:06.972Z,101347.22
2023-07-09T15:29:35.287Z,101339.84
2023-07-09T15:32:05.878Z,101352.16
2023-07-09T15:34:34.118Z,101353.78
2023-07-09T15:37:04.056Z,101345.59
2023-07-09T15:39:32.580Z,101347.16
2023-07-09T15:42:01.266Z,101350.59
2023-07-09T15:44:29.685Z,101335.41
2023-07-09T15:46:58.761Z,101346.09
2023-07-09T15:49:27.890Z,101345.28
2023-07-09T15:51:56.148Z,101348.88
2023-07-09T15:54:26.114Z,101351.56
2023-07-09T15:56:56.013Z,101348.09
2023-07-09T15:59:29.342Z,101351.78
2023-07-09T16:01:59.063Z,101355.16
2023-07-09T16:04:28.696Z,101348.22
2023-07-09T16:06:57.680Z,101355.38
2023-07-09T16:09:26.279Z,101355.50
2023-07-09T16:11:55.765Z,101355.91
2023-07-09T16:14:33.443Z,101363.66
2023-07-09T16:17:03.151Z,101364.47
2023-07-09T16:19:34.611Z,101363.41
2023-07-09T16:22:09.144Z,101358.53
2023-07-09T16:24:38.721Z,101360.38
2023-07-09T16:27:10.203Z,101361.44
2023-07-09T16:29:39.979Z,101371.59
2023-07-09T16:32:08.758Z,101363.44
2023-07-09T16:34:37.237Z,101368.78
2023-07-09T16:37:09.342Z,101369.78
2023-07-09T16:39:43.029Z,101359.47
2023-07-09T16:42:13.987Z,101361.34
2023-07-09T16:44:42.535Z,101360.78
2023-07-09T16:47:17.520Z,101358.34
2023-07-09T16:49:45.887Z,101357.91
2023-07-09T16:52:27.708Z,101360.09
2023-07-09T16:54:56.958Z,101356.59
2023-07-09T16:57:28.479Z,101351.19
2023-07-09T17:00:02.119Z,101358.28
2023-07-09T17:02:34.978Z,101360.34
2023-07-09T17:05:08.159Z,101348.41
2023-07-09T17:07:36.575Z,101358.59
2023-07-09T17:10:06.393Z,101354.09
2023-07-09T17:12:35.200Z,101358.38
2023-07-09T17:15:30.514Z,101358.88
2023-07-09T17:17:59.819Z,101354.16
2023-07-09T17:20:33.211Z,101351.31
2023-07-09T17:23:02.100Z,101354.78
2023-07-09T17:25:34.085Z,101358.09
2023-07-09T17:28:05.197Z,101353.28
2023-07-09T17:30:33.577Z,101356.88
2023-07-09T17:33:01.931Z,101359.97
2023-07-09T17:35:30.193Z,101357.84
2023-07-09T17:37:58.921Z,101362.97
2023-07-09T17:43:11.772Z,101365.38
2023-07-09T17:45:40.129Z,101363.75
2023-07-09T17:48:24.520Z,101369.88
2023-07-09T17:50:52.785Z,101368.00
2023-07-09T17:53:26.609Z,101369.50
2023-07-09T17:55:55.355Z,101371.50
2023-07-09T17:58:31.524Z,101370.00
2023-07-09T18:01:03.279Z,101374.31
2023-07-09T18:03:32.049Z,101377.00
2023-07-09T18:06:01.045Z,101376.13
2023-07-09T18:08:29.435Z,101383.31
2023-07-09T18:10:59.122Z,101384.09
2023-07-09T18:13:30.298Z,101377.84
2023-07-09T18:15:59.362Z,101376.88
2023-07-09T18:18:27.850Z,101375.09
2023-07-09T18:20:56.136Z,101380.22
2023-07-09T18:23:26.321Z,101371.97
2023-07-09T18:25:54.761Z,101366.94
2023-07-09T18:28:32.458Z,101371.91
2023-07-09T18:33:33.590Z,101366.16
2023-07-09T18:36:01.891Z,101365.63
2023-07-09T18:38:30.172Z,101361.06
2023-07-09T18:40:58.496Z,101367.28
2023-07-09T18:45:57.863Z,101362.72
2023-07-09T18:48:27.158Z,101356.22
2023-07-09T18:50:57.817Z,101359.56
2023-07-09T18:53:26.802Z,101359.81
2023-07-09T18:55:56.260Z,101355.69
2023-07-09T18:58:27.468Z,101363.81
2023-07-09T19:00:58.134Z,101362.25
2023-07-09T19:03:33.096Z,101361.38
2023-07-09T19:06:01.820Z,101363.72
2023-07-09T19:08:34.579Z,101366.50
2023-07-09T19:11:04.589Z,101370.38
2023-07-09T19:13:33.713Z,101369.25
2023-07-09T19:16:03.728Z,101365.44
2023-07-09T19:18:37.120Z,101366.25
2023-07-09T19:21:06.521Z,101360.34
2023-07-09T19:23:34.870Z,101366.47
2023-07-09T19:26:04.389Z,101368.22
2023-07-09T19:28:32.860Z,101363.88
2023-07-09T19:31:01.211Z,101366.84
2023-07-09T19:33:37.125Z,101367.66
2023-07-09T19:36:17.012Z,101366.53
2023-07-09T19:38:46.818Z,101375.19
2023-07-09T19:41:16.818Z,101371.91
2023-07-09T19:43:45.059Z,101375.13
2023-07-09T19:46:25.414Z,101373.00
2023-07-09T19:48:53.943Z,101372.66
2023-07-09T19:51:22.193Z,101361.19
2023-07-09T19:53:50.533Z,101376.41
2023-07-09T19:56:18.830Z,101370.63
2023-07-09T19:58:47.096Z,101378.78
2023-07-09T20:01:15.878Z,101381.19
2023-07-09T20:03:44.348Z,101389.66
2023-07-09T20:06:17.497Z,101377.00
2023-07-09T20:08:45.778Z,101381.03
2023-07-09T20:11:15.119Z,101380.06
2023-07-09T20:13:43.601Z,101375.06
2023-07-09T20:16:34.280Z,101370.63
2023-07-09T20:19:08.158Z,101371.53
2023-07-09T20:21:38.114Z,101365.66
2023-07-09T20:24:32.369Z,101364.56
2023-07-09T20:27:00.592Z,101361.53
2023-07-09T20:29:28.897Z,101351.53
2023-07-09T20:31:58.897Z,101357.81
2023-07-09T20:34:27.878Z,101365.59
2023-07-09T20:36:56.133Z,101365.50
2023-07-09T20:39:26.336Z,101368.66
2023-07-09T20:41:54.738Z,101363.13
2023-07-09T20:44:36.827Z,101361.84
2023-07-09T20:47:15.799Z,101357.84
2023-07-09T20:49:44.387Z,101363.25
2023-07-09T20:52:13.195Z,101361.53
2023-07-09T20:54:45.156Z,101365.59
2023-07-09T20:57:19.449Z,101366.06
2023-07-09T20:59:48.151Z,101354.81
2023-07-09T21:02:25.405Z,101358.28
2023-07-09T21:04:57.012Z,101366.06
2023-07-09T21:07:26.368Z,101370.50
2023-07-09T21:09:54.741Z,101356.44
2023-07-09T21:12:23.207Z,101369.38
2023-07-09T21:14:51.418Z,101348.59
2023-07-09T21:17:29.152Z,101359.59
2023-07-09T21:19:58.480Z,101355.84
2023-07-09T21:22:26.876Z,101352.22
2023-07-09T21:24:59.436Z,101350.28
2023-07-09T21:27:27.842Z,101356.50
2023-07-09T21:29:56.120Z,101353.09
2023-07-09T21:32:32.351Z,101364.22
2023-07-09T21:35:01.147Z,101357.63
2023-07-09T21:37:30.198Z,101367.16
2023-07-09T21:39:59.339Z,101368.47
2023-07-09T21:42:27.831Z,101367.13
2023-07-09T21:44:56.114Z,101367.69
2023-07-09T21:47:25.372Z,101366.75
2023-07-09T21:49:53.649Z,101362.72
2023-07-09T21:52:24.161Z,101364.22
2023-07-09T21:57:25.197Z,101368.84
2023-07-09T21:59:53.431Z,101370.25
2023-07-09T22:02:32.882Z,101362.03
2023-07-09T22:05:01.209Z,101384.03
2023-07-09T22:07:32.474Z,101366.97
2023-07-09T22:10:00.684Z,101374.06
2023-07-09T22:12:31.523Z,101364.22
2023-07-09T22:15:05.484Z,101365.56
2023-07-09T22:17:34.923Z,101367.28
2023-07-09T22:20:03.369Z,101364.50
2023-07-09T22:22:32.366Z,101374.47
2023-07-09T22:25:00.634Z,101366.56
2023-07-09T22:27:30.071Z,101371.91
2023-07-09T22:29:58.637Z,101370.34
2023-07-09T22:32:29.920Z,101369.59
2023-07-09T22:35:04.605Z,101360.09
2023-07-09T22:37:34.088Z,101369.81
2023-07-09T22:40:17.392Z,101362.56
2023-07-09T22:42:46.070Z,101361.31
2023-07-09T22:45:14.364Z,101371.22
2023-07-09T22:47:43.340Z,101359.84
2023-07-09T22:50:17.096Z,101374.91
2023-07-09T22:52:46.369Z,101376.00
2023-07-09T22:55:35.122Z,101364.97
2023-07-09T22:58:06.353Z,101368.53
2023-07-09T23:00:39.426Z,101374.03
2023-07-09T23:03:14.203Z,101358.91
2023-07-09T23:05:42.925Z,101364.09
2023-07-09T23:08:23.984Z,101368.00
2023-07-09T23:11:01.612Z,101360.81
2023-07-09T23:13:37.484Z,101363.03
2023-07-09T23:16:06.304Z,101359.34
2023-07-09T23:18:34.820Z,101357.94
2023-07-09T23:21:05.975Z,101354.50
2023-07-09T23:23:34.273Z,101357.06
2023-07-09T23:26:02.730Z,101367.97
2023-07-09T23:28:32.597Z,101371.84
2023-07-09T23:31:02.440Z,101362.72
2023-07-09T23:33:38.626Z,101361.13
2023-07-09T23:36:12.401Z,101364.47
2023-07-09T23:38:40.686Z,101359.72
2023-07-09T23:41:21.638Z,101352.31
2023-07-09T23:43:50.490Z,101352.41
2023-07-09T23:46:18.748Z,101351.44
2023-07-09T23:48:51.379Z,101355.19
2023-07-09T23:51:25.393Z,101347.09
2023-07-09T23:53:53.644Z,101357.19
2023-07-09T23:56:29.386Z,101355.63
2023-07-09T23:58:58.971Z,101374.59
